createdAt,value
2018-06-05T00:02:24.423Z,3.53
2018-06-05T00:04:52.625Z,3.43
2018-06-05T00:07:20.806Z,3.03
2018-06-05T00:09:48.998Z,3.10
2018-06-05T00:12:16.939Z,3.27
2018-06-05T00:14:45.126Z,3.10
2018-06-05T00:17:13.332Z,3.27
2018-06-05T00:19:41.558Z,3.37
2018-06-05T00:22:09.765Z,3.30
2018-06-05T00:24:37.950Z,3.90
2018-06-05T00:27:06.222Z,3.87
2018-06-05T00:29:34.823Z,3.53
2018-06-05T00:32:03.023Z,3.60
2018-06-05T00:34:31.211Z,3.33
2018-06-05T00:36:59.429Z,3.90
2018-06-05T00:39:27.914Z,3.90
2018-06-05T00:41:56.105Z,3.80
2018-06-05T00:44:24.304Z,4.30
2018-06-05T00:46:52.518Z,4.00
2018-06-05T00:49:20.931Z,3.50
2018-06-05T00:52:00.592Z,3.83
2018-06-05T00:54:28.784Z,4.57
2018-06-05T00:56:56.995Z,4.17
2018-06-05T00:59:25.190Z,4.30
2018-06-05T01:01:53.394Z,3.80
2018-06-05T01:04:21.605Z,4.00
2018-06-05T01:06:49.801Z,3.83
2018-06-05T01:09:17.998Z,3.90
2018-06-05T01:11:46.165Z,3.93
2018-06-05T01:14:14.360Z,3.93
2018-06-05T01:16:42.658Z,3.70
2018-06-05T01:19:10.872Z,3.93
2018-06-05T01:21:39.074Z,4.33
2018-06-05T01:24:07.274Z,4.10
2018-06-05T01:26:35.482Z,4.90
2018-06-05T01:29:03.442Z,4.10
2018-06-05T01:31:31.642Z,3.73
2018-06-05T01:33:59.848Z,4.30
2018-06-05T01:36:28.045Z,4.70
2018-06-05T01:38:56.264Z,4.13
2018-06-05T01:41:24.479Z,4.67
2018-06-05T01:43:52.667Z,4.03
2018-06-05T01:46:21.393Z,4.57
2018-06-05T01:48:49.596Z,4.83
2018-06-05T01:51:17.792Z,4.10
2018-06-05T01:53:46.038Z,4.10
2018-06-05T01:56:14.223Z,4.53
2018-06-05T01:58:42.428Z,4.47
2018-06-05T02:01:10.630Z,4.30
2018-06-05T02:03:38.818Z,4.10
2018-06-05T02:06:07.035Z,4.40
2018-06-05T02:08:35.218Z,4.00
2018-06-05T02:11:03.414Z,4.37
2018-06-05T02:13:31.364Z,4.97
2018-06-05T02:15:59.557Z,4.77
2018-06-05T02:18:27.514Z,4.90
2018-06-05T02:20:55.735Z,4.60
2018-06-05T02:23:23.960Z,3.80
2018-06-05T02:25:52.255Z,4.87
2018-06-05T02:28:20.446Z,4.70
2018-06-05T02:30:48.910Z,4.53
2018-06-05T02:33:16.862Z,4.10
2018-06-05T02:35:45.064Z,4.50
2018-06-05T02:38:13.263Z,5.07
2018-06-05T02:40:41.475Z,4.73
2018-06-05T02:43:09.685Z,4.80
2018-06-05T02:45:37.638Z,4.53
2018-06-05T02:48:05.828Z,5.00
2018-06-05T02:50:34.029Z,4.70
2018-06-05T02:53:02.254Z,6.50
2018-06-05T02:55:30.442Z,4.37
2018-06-05T02:57:58.376Z,4.30
2018-06-05T03:00:26.594Z,4.53
2018-06-05T03:02:54.795Z,4.23
2018-06-05T03:05:23.002Z,4.17
2018-06-05T03:07:51.215Z,5.00
2018-06-05T03:10:19.432Z,4.63
2018-06-05T03:12:47.636Z,4.63
2018-06-05T03:15:15.854Z,5.13
2018-06-05T03:17:44.064Z,4.20
2018-06-05T03:20:12.314Z,4.80
2018-06-05T03:22:40.598Z,4.70
2018-06-05T03:25:09.038Z,4.60
2018-06-05T03:27:37.123Z,5.27
2018-06-05T03:30:05.393Z,4.93
2018-06-05T03:32:33.780Z,4.37
2018-06-05T03:35:02.078Z,4.60
2018-06-05T03:37:30.267Z,4.80
2018-06-05T03:39:58.506Z,4.97
2018-06-05T03:42:26.862Z,4.73
2018-06-05T03:44:55.067Z,4.50
2018-06-05T03:47:23.359Z,4.90
2018-06-05T03:49:51.711Z,4.60
2018-06-05T03:52:20.149Z,4.77
2018-06-05T03:54:48.335Z,4.60
2018-06-05T03:57:16.522Z,4.97
2018-06-05T03:59:44.729Z,4.70
2018-06-05T04:02:12.931Z,4.93
2018-06-05T04:04:41.128Z,4.73
2018-06-05T04:07:09.331Z,4.60
2018-06-05T04:09:38.440Z,5.00
2018-06-05T04:12:06.659Z,5.27
2018-06-05T04:14:34.874Z,4.87
2018-06-05T04:17:03.060Z,4.60
2018-06-05T04:19:31.240Z,4.70
2018-06-05T04:21:59.434Z,4.60
2018-06-05T04:24:27.617Z,4.80
2018-06-05T04:26:55.843Z,4.80
2018-06-05T04:29:23.811Z,5.40
2018-06-05T04:31:52.015Z,5.60
2018-06-05T04:34:20.196Z,4.80
2018-06-05T04:36:48.446Z,4.73
2018-06-05T04:39:16.657Z,4.90
2018-06-05T04:41:44.850Z,4.93
2018-06-05T04:44:13.051Z,4.63
2018-06-05T04:46:41.003Z,4.63
2018-06-05T04:49:09.182Z,4.90
2018-06-05T04:51:37.366Z,4.53
2018-06-05T04:54:05.571Z,4.37
2018-06-05T04:56:33.761Z,4.07
2018-06-05T04:59:01.988Z,4.73
2018-06-05T05:01:30.173Z,4.70
2018-06-05T05:03:58.361Z,4.17
2018-06-05T05:06:26.591Z,4.60
2018-06-05T05:08:54.796Z,5.37
2018-06-05T05:11:23.008Z,6.00
2018-06-05T05:13:51.205Z,5.07
2018-06-05T05:16:19.439Z,5.20
2018-06-05T05:18:47.579Z,5.07
2018-06-05T05:21:15.778Z,5.20
2018-06-05T05:23:43.970Z,4.77
2018-06-05T05:26:12.180Z,5.23
2018-06-05T05:28:40.374Z,4.50
2018-06-05T05:31:08.327Z,5.67
2018-06-05T05:33:36.529Z,5.23
2018-06-05T05:36:04.764Z,5.70
2018-06-05T05:38:32.967Z,5.27
2018-06-05T05:41:00.953Z,4.60
2018-06-05T05:43:29.197Z,4.87
2018-06-05T05:45:57.140Z,5.63
2018-06-05T05:48:25.336Z,4.60
2018-06-05T05:50:53.571Z,5.20
2018-06-05T05:53:21.780Z,4.73
2018-06-05T05:55:49.978Z,4.73
2018-06-05T05:58:18.195Z,5.03
2018-06-05T06:00:46.385Z,4.80
2018-06-05T06:03:14.599Z,4.30
2018-06-05T06:05:42.800Z,4.30
2018-06-05T06:08:10.991Z,4.40
2018-06-05T06:10:39.188Z,4.50
2018-06-05T06:13:07.395Z,4.50
2018-06-05T06:15:35.600Z,3.90
2018-06-05T06:18:04.247Z,4.00
2018-06-05T06:20:32.427Z,4.50
2018-06-05T06:23:00.392Z,4.17
2018-06-05T06:25:28.348Z,4.70
2018-06-05T06:27:56.543Z,4.00
2018-06-05T06:30:24.732Z,3.63
2018-06-05T06:32:52.934Z,4.00
2018-06-05T06:35:21.134Z,3.60
2018-06-05T06:37:49.344Z,4.20
2018-06-05T06:40:17.298Z,3.00
2018-06-05T06:42:45.525Z,3.53
2018-06-05T06:45:13.723Z,3.80
2018-06-05T06:47:41.688Z,4.10
2018-06-05T06:50:09.952Z,3.13
2018-06-05T06:52:38.134Z,4.00
2018-06-05T06:55:06.335Z,4.13
2018-06-05T06:57:34.539Z,3.50
2018-06-05T07:00:02.772Z,3.77
2018-06-05T07:02:30.997Z,2.83
2018-06-05T07:04:59.187Z,2.80
2018-06-05T07:07:27.406Z,3.33
2018-06-05T07:09:55.367Z,3.10
2018-06-05T07:12:23.560Z,3.40
2018-06-05T07:14:51.503Z,3.20
2018-06-05T07:17:19.711Z,3.00
2018-06-05T07:19:47.897Z,3.00
2018-06-05T07:22:16.079Z,2.50
2018-06-05T07:24:44.272Z,2.80
2018-06-05T07:27:12.450Z,2.87
2018-06-05T07:29:40.695Z,2.50
2018-06-05T07:32:08.892Z,3.00
2018-06-05T07:34:37.085Z,3.00
2018-06-05T07:37:05.292Z,2.40
2018-06-05T07:39:33.488Z,2.80
2018-06-05T07:42:01.686Z,3.10
2018-06-05T07:44:29.943Z,2.97
2018-06-05T07:46:58.150Z,2.20
2018-06-05T07:49:26.363Z,3.13
2018-06-05T07:51:54.550Z,3.17
2018-06-05T07:54:22.753Z,3.00
2018-06-05T07:56:50.959Z,2.70
2018-06-05T07:59:19.164Z,2.60
2018-06-05T08:01:47.358Z,3.30
2018-06-05T08:04:15.551Z,2.87
2018-06-05T08:06:43.763Z,3.07
2018-06-05T08:09:11.946Z,3.17
2018-06-05T08:11:40.143Z,2.67
2018-06-05T08:14:08.344Z,2.80
2018-06-05T08:16:36.535Z,2.87
2018-06-05T08:19:04.769Z,2.87
2018-06-05T08:21:32.974Z,2.63
2018-06-05T08:24:01.145Z,2.70
2018-06-05T08:26:42.610Z,2.87
2018-06-05T08:29:10.845Z,2.87
2018-06-05T08:31:39.061Z,3.00
2018-06-05T08:34:07.254Z,2.50
2018-06-05T08:36:35.468Z,2.80
2018-06-05T08:39:03.953Z,3.40
2018-06-05T08:41:32.161Z,3.60
2018-06-05T08:44:00.355Z,2.93
2018-06-05T08:46:28.560Z,3.03
2018-06-05T08:48:56.761Z,3.13
2018-06-05T08:51:24.714Z,3.40
2018-06-05T08:53:52.911Z,3.90
2018-06-05T08:56:21.123Z,2.83
2018-06-05T08:58:49.374Z,3.30
2018-06-05T09:01:17.590Z,3.73
2018-06-05T09:03:45.776Z,3.53
2018-06-05T09:06:13.988Z,3.67
2018-06-05T09:08:42.177Z,3.83
2018-06-05T09:11:10.372Z,3.70
2018-06-05T09:13:38.571Z,3.80
2018-06-05T09:16:06.770Z,3.67
2018-06-05T09:18:34.980Z,4.20
2018-06-05T09:21:03.168Z,3.77
2018-06-05T09:23:31.355Z,3.37
2018-06-05T09:25:59.558Z,3.33
2018-06-05T09:28:27.510Z,4.30
2018-06-05T09:30:55.851Z,4.13
2018-06-05T09:33:24.059Z,3.60
2018-06-05T09:35:52.275Z,3.70
2018-06-05T09:38:20.460Z,3.47
2018-06-05T09:40:48.671Z,3.90
2018-06-05T09:43:16.853Z,4.40
2018-06-05T09:45:45.057Z,4.27
2018-06-05T09:48:13.275Z,4.30
2018-06-05T09:50:45.094Z,3.90
2018-06-05T09:53:13.437Z,3.90
2018-06-05T09:55:41.691Z,3.87
2018-06-05T09:58:10.013Z,4.90
2018-06-05T10:00:43.574Z,4.20
2018-06-05T10:03:11.801Z,4.23
2018-06-05T10:05:40.007Z,3.60
2018-06-05T10:08:08.193Z,3.60
2018-06-05T10:10:36.416Z,3.90
2018-06-05T10:13:04.619Z,4.37
2018-06-05T10:15:32.809Z,4.83
2018-06-05T10:18:00.998Z,3.97
2018-06-05T10:20:29.213Z,4.17
2018-06-05T10:22:57.423Z,3.33
2018-06-05T10:25:25.630Z,4.30
2018-06-05T10:27:53.834Z,4.17
2018-06-05T10:30:22.034Z,3.60
2018-06-05T10:32:50.240Z,3.90
2018-06-05T10:35:18.425Z,3.57
2018-06-05T10:37:46.625Z,4.07
2018-06-05T10:40:14.856Z,3.60
2018-06-05T10:42:43.007Z,3.80
2018-06-05T10:45:11.203Z,3.87
2018-06-05T10:47:39.409Z,3.90
2018-06-05T10:50:07.627Z,4.17
2018-06-05T10:52:35.828Z,3.50
2018-06-05T10:55:04.026Z,4.00
2018-06-05T10:57:32.245Z,3.30
2018-06-05T11:00:00.450Z,4.60
2018-06-05T11:02:28.662Z,4.40
2018-06-05T11:04:56.850Z,3.73
2018-06-05T11:07:25.077Z,3.57
2018-06-05T11:09:53.302Z,3.90
2018-06-05T11:12:21.517Z,4.20
2018-06-05T11:14:49.735Z,4.43
2018-06-05T11:17:17.964Z,4.27
2018-06-05T11:19:46.157Z,4.40
2018-06-05T11:22:14.378Z,3.97
2018-06-05T11:24:42.683Z,5.50
2018-06-05T11:27:10.904Z,4.63
2018-06-05T11:29:38.856Z,4.40
2018-06-05T11:32:07.077Z,4.60
2018-06-05T11:34:35.252Z,4.40
2018-06-05T11:37:03.459Z,4.10
2018-06-05T11:39:31.659Z,4.40
2018-06-05T11:41:59.866Z,4.53
2018-06-05T11:44:28.057Z,4.13
2018-06-05T11:46:56.268Z,4.83
2018-06-05T11:49:24.453Z,4.30
2018-06-05T11:51:52.656Z,4.20
2018-06-05T11:54:20.881Z,4.77
2018-06-05T11:56:49.049Z,5.10
2018-06-05T11:59:17.255Z,4.70
2018-06-05T12:01:45.542Z,4.23
2018-06-05T12:04:13.683Z,4.60
2018-06-05T12:06:41.876Z,4.90
2018-06-05T12:09:10.068Z,4.53
2018-06-05T12:11:38.271Z,4.27
2018-06-05T12:14:06.469Z,5.10
2018-06-05T12:16:34.659Z,5.10
2018-06-05T12:19:02.856Z,4.90
2018-06-05T12:21:31.041Z,5.00
2018-06-05T12:23:59.240Z,4.33
2018-06-05T12:26:27.428Z,4.30
2018-06-05T12:28:55.640Z,4.50
2018-06-05T12:31:23.821Z,4.87
2018-06-05T12:33:52.026Z,4.83
2018-06-05T12:36:20.226Z,4.60
2018-06-05T12:38:48.427Z,3.90
2018-06-05T12:41:16.628Z,4.60
2018-06-05T12:43:44.842Z,5.00
2018-06-05T12:46:13.041Z,4.30
2018-06-05T12:48:41.241Z,4.70
2018-06-05T12:51:09.191Z,4.30
2018-06-05T12:53:37.395Z,4.97
2018-06-05T12:56:05.610Z,4.57
2018-06-05T12:58:33.822Z,4.47
2018-06-05T13:01:02.016Z,4.90
2018-06-05T13:03:30.223Z,4.83
2018-06-05T13:05:58.422Z,4.80
2018-06-05T13:08:26.632Z,5.17
2018-06-05T13:10:54.585Z,4.63
2018-06-05T13:13:22.776Z,5.10
2018-06-05T13:15:50.968Z,4.60
2018-06-05T13:18:19.172Z,4.57
2018-06-05T13:20:47.391Z,5.30
2018-06-05T13:23:15.584Z,4.50
2018-06-05T13:25:43.782Z,5.17
2018-06-05T13:28:11.988Z,5.70
2018-06-05T13:30:40.161Z,5.17
2018-06-05T13:33:08.394Z,5.10
2018-06-05T13:35:36.582Z,5.33
2018-06-05T13:38:04.788Z,5.40
2018-06-05T13:40:32.973Z,5.93
2018-06-05T13:43:00.959Z,5.80
2018-06-05T13:45:29.137Z,5.37
2018-06-05T13:47:57.323Z,5.00
2018-06-05T13:50:25.552Z,5.13
2018-06-05T13:52:53.738Z,5.17
2018-06-05T13:55:21.934Z,5.20
2018-06-05T13:57:50.117Z,5.37
2018-06-05T14:00:18.317Z,6.10
2018-06-05T14:02:46.518Z,5.40
2018-06-05T14:05:14.715Z,5.90
2018-06-05T14:07:42.944Z,5.57
2018-06-05T14:10:11.144Z,5.13
2018-06-05T14:12:39.351Z,5.30
2018-06-05T14:15:07.556Z,5.47
2018-06-05T14:17:35.756Z,5.60
2018-06-05T14:20:03.950Z,4.90
2018-06-05T14:22:32.142Z,5.87
2018-06-05T14:25:00.331Z,5.27
2018-06-05T14:27:28.569Z,5.07
2018-06-05T14:29:56.762Z,5.97
2018-06-05T14:32:25.023Z,6.03
2018-06-05T14:34:53.210Z,4.90
2018-06-05T14:37:21.175Z,5.37
2018-06-05T14:39:49.394Z,4.70
2018-06-05T14:42:17.611Z,5.37
2018-06-05T14:44:45.836Z,5.30
2018-06-05T14:47:14.035Z,6.80
2018-06-05T14:49:42.254Z,5.60
2018-06-05T14:52:10.430Z,5.30
2018-06-05T14:54:38.627Z,5.40
2018-06-05T14:57:06.892Z,4.80
2018-06-05T14:59:35.087Z,4.53
2018-06-05T15:02:03.298Z,5.20
2018-06-05T15:04:31.494Z,4.87
2018-06-05T15:06:59.706Z,5.30
2018-06-05T15:09:27.915Z,5.40
2018-06-05T15:11:56.124Z,5.37
2018-06-05T15:14:24.072Z,5.37
2018-06-05T15:16:52.258Z,4.77
2018-06-05T15:19:20.467Z,5.63
2018-06-05T15:21:48.683Z,4.80
2018-06-05T15:24:16.885Z,4.80
2018-06-05T15:26:45.094Z,5.07
2018-06-05T15:29:13.307Z,5.40
2018-06-05T15:31:41.527Z,5.53
2018-06-05T15:34:09.770Z,5.10
2018-06-05T15:36:37.922Z,5.93
2018-06-05T15:39:08.224Z,5.60
2018-06-05T15:41:36.624Z,6.30
2018-06-05T15:44:04.834Z,5.50
2018-06-05T15:46:32.805Z,5.60
2018-06-05T15:49:00.998Z,6.20
2018-06-05T15:51:29.216Z,6.17
2018-06-05T15:53:57.418Z,5.73
2018-06-05T15:56:25.615Z,5.67
2018-06-05T15:58:53.808Z,5.70
2018-06-05T16:01:22.016Z,6.47
2018-06-05T16:03:50.223Z,5.27
2018-06-05T16:06:18.428Z,5.20
2018-06-05T16:08:46.615Z,5.10
2018-06-05T16:11:14.806Z,6.23
2018-06-05T16:13:43.007Z,5.53
2018-06-05T16:16:10.966Z,5.60
2018-06-05T16:18:39.153Z,5.80
2018-06-05T16:21:07.360Z,6.90
2018-06-05T16:23:35.559Z,5.90
2018-06-05T16:26:03.781Z,5.83
2018-06-05T16:28:31.737Z,5.40
2018-06-05T16:30:59.940Z,5.77
2018-06-05T16:33:28.190Z,5.10
2018-06-05T16:35:56.345Z,6.07
2018-06-05T16:38:24.529Z,6.30
2018-06-05T16:40:52.479Z,5.60
2018-06-05T16:43:20.688Z,5.53
2018-06-05T16:45:48.890Z,5.43
2018-06-05T16:48:17.106Z,5.80
2018-06-05T16:50:45.294Z,5.27
2018-06-05T16:53:13.499Z,6.20
2018-06-05T16:55:41.695Z,5.37
2018-06-05T16:58:09.891Z,6.40
2018-06-05T17:00:38.090Z,5.90
2018-06-05T17:03:06.041Z,6.47
2018-06-05T17:05:34.239Z,5.80
2018-06-05T17:08:02.192Z,5.57
2018-06-05T17:10:30.399Z,5.43
2018-06-05T17:12:58.611Z,5.40
2018-06-05T17:15:26.798Z,5.33
2018-06-05T17:17:55.017Z,5.77
2018-06-05T17:20:22.967Z,5.80
2018-06-05T17:22:50.944Z,5.87
2018-06-05T17:25:18.965Z,5.93
2018-06-05T17:27:47.177Z,5.97
2018-06-05T17:30:15.380Z,5.60
2018-06-05T17:32:43.649Z,6.23
2018-06-05T17:35:11.843Z,5.60
2018-06-05T17:37:40.222Z,5.20
2018-06-05T17:40:08.429Z,5.77
2018-06-05T17:42:36.664Z,5.83
2018-06-05T17:45:04.972Z,5.23
2018-06-05T17:47:33.543Z,6.00
2018-06-05T17:50:01.856Z,4.70
2018-06-05T17:52:29.827Z,5.70
2018-06-05T17:54:58.029Z,5.77
2018-06-05T17:57:26.234Z,6.40
2018-06-05T17:59:54.613Z,5.80
2018-06-05T18:02:22.833Z,5.80
2018-06-05T18:04:51.028Z,5.00
2018-06-05T18:07:19.225Z,5.57
2018-06-05T18:09:47.410Z,6.50
2018-06-05T18:12:15.898Z,6.30
2018-06-05T18:14:44.284Z,6.20
2018-06-05T18:17:12.564Z,6.03
2018-06-05T18:19:40.800Z,6.30
2018-06-05T18:22:08.948Z,6.50
2018-06-05T18:24:37.139Z,6.60
2018-06-05T18:27:05.345Z,6.57
2018-06-05T18:29:33.552Z,5.97
2018-06-05T18:32:01.762Z,5.90
2018-06-05T18:34:29.945Z,6.40
2018-06-05T18:36:58.154Z,6.07
2018-06-05T18:39:26.353Z,6.47
2018-06-05T18:41:54.565Z,6.30
2018-06-05T18:44:22.763Z,5.80
2018-06-05T18:46:50.969Z,7.07
2018-06-05T18:49:19.176Z,6.17
2018-06-05T18:51:47.367Z,6.50
2018-06-05T18:54:15.607Z,6.23
2018-06-05T18:56:43.854Z,6.93
2018-06-05T18:59:11.988Z,6.80
2018-06-05T19:01:40.198Z,7.37
2018-06-05T19:04:08.425Z,6.77
2018-06-05T19:06:36.623Z,7.77
2018-06-05T19:09:07.192Z,6.80
2018-06-05T19:11:35.401Z,6.90
2018-06-05T19:14:03.853Z,7.87
2018-06-05T19:16:32.046Z,7.13
2018-06-05T19:19:00.241Z,7.37
2018-06-05T19:21:28.433Z,7.20
2018-06-05T19:23:56.646Z,7.67
2018-06-05T19:26:24.604Z,8.03
2018-06-05T19:28:52.831Z,7.30
2018-06-05T19:31:21.029Z,7.90
2018-06-05T19:33:49.251Z,7.40
2018-06-05T19:36:17.189Z,8.40
2018-06-05T19:38:45.388Z,7.53
2018-06-05T19:41:13.695Z,8.70
2018-06-05T19:43:41.885Z,7.70
2018-06-05T19:46:10.080Z,8.67
2018-06-05T19:48:38.315Z,8.80
2018-06-05T19:51:06.498Z,8.80
2018-06-05T19:53:34.732Z,8.40
2018-06-05T19:56:02.687Z,8.77
2018-06-05T19:58:30.901Z,7.93
2018-06-05T20:00:59.106Z,8.87
2018-06-05T20:03:27.304Z,7.80
2018-06-05T20:05:55.511Z,8.80
2018-06-05T20:08:23.712Z,8.93
2018-06-05T20:10:51.915Z,8.07
2018-06-05T20:13:20.118Z,8.80
2018-06-05T20:15:48.061Z,9.30
2018-06-05T20:18:16.260Z,9.00
2018-06-05T20:20:44.482Z,10.00
2018-06-05T20:23:12.691Z,9.43
2018-06-05T20:25:41.054Z,8.40
2018-06-05T20:28:09.270Z,7.90
2018-06-05T20:30:37.470Z,7.87
2018-06-05T20:33:05.764Z,8.30
2018-06-05T20:35:33.964Z,8.73
2018-06-05T20:38:11.498Z,9.50
2018-06-05T20:40:44.490Z,8.50
2018-06-05T20:46:04.947Z,8.73
2018-06-05T20:49:18.119Z,8.40
2018-06-05T20:54:36.764Z,8.63
2018-06-05T20:57:23.628Z,9.00
2018-06-05T21:00:10.288Z,9.23
2018-06-05T21:02:58.385Z,8.90
2018-06-05T21:05:29.573Z,9.20
2018-06-05T21:08:03.707Z,8.47
2018-06-05T21:10:44.492Z,9.50
2018-06-05T21:16:01.675Z,9.30
2018-06-05T21:18:31.712Z,9.30
2018-06-05T21:21:01.012Z,9.23
2018-06-05T21:23:29.515Z,10.40
2018-06-05T21:26:02.810Z,9.00
2018-06-05T21:28:38.592Z,9.17
2018-06-05T21:31:07.738Z,8.97
2018-06-05T21:33:36.301Z,9.00
2018-06-05T21:36:07.533Z,9.37
2018-06-05T21:38:37.338Z,10.20
2018-06-05T21:41:06.579Z,9.67
2018-06-05T21:43:35.704Z,9.43
2018-06-05T21:46:06.266Z,10.93
2018-06-05T21:48:35.819Z,10.43
2018-06-05T21:51:04.433Z,10.93
2018-06-05T21:53:33.235Z,10.67
2018-06-05T21:56:01.656Z,9.67
2018-06-05T21:58:32.145Z,10.20
2018-06-05T22:01:00.912Z,9.20
2018-06-05T22:03:33.117Z,10.17
2018-06-05T22:06:01.942Z,8.77
2018-06-05T22:08:30.312Z,9.83
2018-06-05T22:10:58.348Z,9.13
2018-06-05T22:13:27.406Z,9.23
2018-06-05T22:15:55.394Z,9.80
2018-06-05T22:18:25.585Z,11.00
2018-06-05T22:20:54.285Z,9.87
2018-06-05T22:23:22.689Z,10.23
2018-06-05T22:25:52.439Z,11.40
2018-06-05T22:28:21.039Z,11.53
2018-06-05T22:30:50.012Z,11.70
2018-06-05T22:33:19.093Z,9.80
2018-06-05T22:35:47.341Z,11.47
2018-06-05T22:38:15.723Z,11.20
2018-06-05T22:40:44.199Z,10.13
2018-06-05T22:43:13.227Z,10.20
2018-06-05T22:45:41.442Z,10.93
2018-06-05T22:48:10.768Z,10.60
2018-06-05T22:50:39.223Z,11.47
2018-06-05T22:53:07.921Z,10.97
2018-06-05T22:55:36.435Z,11.37
2018-06-05T22:58:05.676Z,11.23
2018-06-05T23:00:38.601Z,11.13
2018-06-05T23:03:09.596Z,11.03
2018-06-05T23:05:39.930Z,11.10
2018-06-05T23:08:10.167Z,11.07
2018-06-05T23:10:40.564Z,11.30
2018-06-05T23:13:15.878Z,12.10
2018-06-05T23:15:44.336Z,10.93
2018-06-05T23:21:02.397Z,12.30
2018-06-05T23:23:30.680Z,10.83
2018-06-05T23:26:20.780Z,11.70
2018-06-05T23:28:50.406Z,10.87
2018-06-05T23:31:25.563Z,11.17
2018-06-05T23:34:12.882Z,10.53
2018-06-05T23:36:45.236Z,11.40
2018-06-05T23:39:21.288Z,12.70
2018-06-05T23:41:57.075Z,12.17
2018-06-05T23:44:29.804Z,11.27
2018-06-05T23:47:08.791Z,12.07
2018-06-05T23:49:46.167Z,10.77
2018-06-05T23:52:19.544Z,10.10
2018-06-05T23:54:51.876Z,11.23
2018-06-05T23:57:20.246Z,11.77
2018-06-05T23:59:48.522Z,13.03
